Air Resources Laboratory banner image
Air Resources Laboratory web site National Oceanic and Atmospheric Administration (NOAA)

dc metar


KDCA 220052Z 31010KT 10SM CLR 08/M02 A3024 RMK AO2 SLP241 T00831017=
KDCA 220052Z COR 31010KT 10SM FEW060 08/M02 A3024 RMK AO2 SLP241 T00831017=
KDCA 220152Z 30008KT 10SM FEW065 08/M02 A3026 RMK AO2 SLP247 T00781017=